Time;durP1;ratioP1;P1;durP2;ratioP2;P2;SDS_P1;SDS_P2;PMS_P1;PMS_P2;Temp;Humidity;BMP_temperature;BMP_pressure;BME280_temperature;BME280_humidity;BME280_pressure;Samples;Min_cycle;Max_cycle;Signal;HPM_P1;HPM_P2
2022/10/19 00:00:29;;;;;;;6.30;1.50;;;11.80;99.90;;;;;;4974237;28;20053;-62
2022/10/19 00:02:55;;;;;;;9.18;1.70;;;12.40;99.90;;;;;;4974645;28;20404;-62
2022/10/19 00:05:20;;;;;;;5.55;1.30;;;12.20;99.90;;;;;;4973112;28;20448;-62
2022/10/19 00:07:46;;;;;;;8.10;1.90;;;12.50;99.90;;;;;;4974233;28;20547;-62
2022/10/19 00:10:11;;;;;;;6.60;1.40;;;12.10;99.90;;;;;;4940907;28;20126;-62
2022/10/19 00:12:37;;;;;;;10.98;1.92;;;12.50;99.90;;;;;;4974109;28;20035;-62
2022/10/19 00:15:04;;;;;;;8.93;1.67;;;12.00;99.90;;;;;;4956534;28;20049;-62
2022/10/19 00:17:29;;;;;;;9.68;1.92;;;12.60;99.90;;;;;;4973464;28;20185;-62
2022/10/19 00:19:55;;;;;;;5.47;1.30;;;12.40;99.90;;;;;;4973893;28;20133;-62
2022/10/19 00:22:21;;;;;;;7.78;1.50;;;12.70;99.90;;;;;;4965314;28;20050;-62
2022/10/19 00:24:47;;;;;;;6.38;1.40;;;12.90;99.90;;;;;;4973921;28;20065;-62
2022/10/19 00:27:12;;;;;;;19.05;1.83;;;12.60;99.90;;;;;;4971514;28;20034;-62
2022/10/19 00:29:38;;;;;;;7.40;1.42;;;13.20;99.90;;;;;;4973267;28;20451;-62
2022/10/19 00:32:04;;;;;;;6.30;1.48;;;13.30;99.90;;;;;;4955362;28;20042;-62
2022/10/19 00:34:29;;;;;;;6.05;1.27;;;13.40;99.90;;;;;;4972925;28;20366;-62
2022/10/19 00:36:55;;;;;;;11.07;1.48;;;13.20;99.90;;;;;;4970608;28;20047;-62
2022/10/19 00:39:20;;;;;;;6.88;1.23;;;13.40;99.90;;;;;;4954978;28;20057;-62
2022/10/19 00:41:47;;;;;;;7.65;1.42;;;13.20;99.90;;;;;;4973772;28;20046;-62
2022/10/19 00:44:12;;;;;;;8.57;1.50;;;13.30;99.90;;;;;;4955770;28;20424;-62
2022/10/19 00:46:40;;;;;;;5.25;1.33;;;13.10;99.90;;;;;;4955387;28;20046;-62
2022/10/19 00:49:17;;;;;;;8.68;1.40;;;13.10;99.90;;;;;;4972667;28;20121;-62
2022/10/19 00:51:47;;;;;;;6.88;1.20;;;13.20;99.90;;;;;;4953572;28;20043;-62
2022/10/19 00:54:14;;;;;;;8.18;1.88;;;13.00;99.90;;;;;;4969985;28;20111;-62
2022/10/19 00:56:43;;;;;;;9.90;1.40;;;13.00;99.90;;;;;;4972186;28;20045;-63
2022/10/19 00:59:11;;;;;;;9.10;1.73;;;13.00;99.90;;;;;;4972584;28;20485;-62
2022/10/19 01:01:37;;;;;;;7.38;1.33;;;13.50;99.90;;;;;;4956110;28;20047;-63
2022/10/19 01:04:03;;;;;;;10.27;1.73;;;13.50;99.90;;;;;;4971646;28;20433;-62
2022/10/19 01:06:29;;;;;;;9.48;2.78;;;13.60;99.90;;;;;;4966782;28;20102;-62
2022/10/19 01:08:55;;;;;;;11.25;1.60;;;13.20;99.90;;;;;;4969381;28;20046;-62
2022/10/19 01:11:45;;;;;;;13.05;1.60;;;13.60;99.90;;;;;;4969098;28;20031;-62
2022/10/19 01:14:41;;;;;;;7.80;1.50;;;13.10;99.90;;;;;;4973077;28;20416;-62
2022/10/19 01:17:21;;;;;;;6.32;1.30;;;13.30;99.90;;;;;;4960789;28;20093;-62
2022/10/19 01:20:11;;;;;;;12.88;2.00;;;13.20;99.90;;;;;;4972334;28;20130;-62
2022/10/19 01:22:59;;;;;;;10.70;2.38;;;13.30;99.90;;;;;;4970991;28;20560;-62
2022/10/19 01:26:11;;;;;;;10.52;1.92;;;13.60;99.90;;;;;;4972152;28;20042;-62
2022/10/19 01:29:09;;;;;;;11.65;1.75;;;13.60;99.90;;;;;;4968012;28;20101;-62
2022/10/19 01:32:11;;;;;;;9.75;1.92;;;13.30;99.90;;;;;;4972699;28;20101;-62
2022/10/19 01:34:58;;;;;;;9.18;1.83;;;13.30;99.90;;;;;;4918758;28;20640;-62
2022/10/19 01:37:47;;;;;;;9.25;1.60;;;13.60;99.90;;;;;;4971215;28;20113;-62
2022/10/19 01:40:21;;;;;;;14.10;1.92;;;13.30;99.90;;;;;;4972022;28;20493;-63
2022/10/19 01:43:03;;;;;;;10.13;2.22;;;13.50;99.90;;;;;;4971600;28;20042;-62
2022/10/19 01:45:28;;;;;;;11.52;2.33;;;13.50;99.90;;;;;;4960996;28;20039;-62
2022/10/19 01:48:09;;;;;;;10.38;2.17;;;13.30;99.90;;;;;;4972104;28;20061;-62
2022/10/19 01:50:49;;;;;;;8.40;1.90;;;13.50;99.90;;;;;;4971162;28;20101;-62
2022/10/19 01:53:17;;;;;;;8.93;1.73;;;13.50;99.90;;;;;;4947552;28;20043;-62
2022/10/19 01:55:46;;;;;;;7.60;1.70;;;13.40;99.90;;;;;;4967563;28;20046;-62
2022/10/19 01:58:17;;;;;;;9.90;2.30;;;13.30;99.90;;;;;;4972287;28;20078;-62
2022/10/19 02:00:44;;;;;;;11.27;2.30;;;13.30;99.90;;;;;;4972384;28;20038;-62
2022/10/19 02:03:11;;;;;;;10.48;1.45;;;13.50;99.90;;;;;;4972298;28;20043;-62
2022/10/19 02:05:39;;;;;;;11.05;1.90;;;13.60;99.90;;;;;;4972338;28;20054;-62
2022/10/19 02:08:14;;;;;;;10.73;2.13;;;13.50;99.90;;;;;;4972646;28;20050;-62
2022/10/19 02:10:43;;;;;;;10.38;1.58;;;13.50;99.90;;;;;;4972285;28;20117;-62
2022/10/19 02:13:12;;;;;;;12.57;1.90;;;13.60;99.90;;;;;;4970223;28;20053;-62
2022/10/19 02:15:42;;;;;;;12.88;2.10;;;13.60;99.90;;;;;;4954869;28;20070;-62
2022/10/19 02:18:11;;;;;;;16.45;2.35;;;13.60;99.90;;;;;;4971088;28;20059;-62
2022/10/19 02:20:37;;;;;;;10.77;1.88;;;13.90;99.90;;;;;;4967784;28;20086;-62
2022/10/19 02:23:04;;;;;;;11.52;1.85;;;13.60;99.90;;;;;;4970021;28;20121;-62
2022/10/19 02:25:30;;;;;;;10.50;2.03;;;13.60;99.90;;;;;;4968315;28;20081;-62
2022/10/19 02:27:56;;;;;;;12.15;2.17;;;13.60;99.90;;;;;;4950959;29;20043;-62
2022/10/19 02:30:21;;;;;;;11.10;2.00;;;13.50;99.90;;;;;;4966683;28;20408;-62
2022/10/19 02:32:48;;;;;;;11.35;1.95;;;13.30;99.90;;;;;;4971363;28;20038;-62
2022/10/19 02:35:14;;;;;;;13.27;1.92;;;13.20;99.90;;;;;;4966021;28;20520;-62
2022/10/19 02:37:40;;;;;;;8.63;1.85;;;13.30;99.90;;;;;;4953257;28;20513;-62
2022/10/19 02:40:07;;;;;;;11.27;1.73;;;13.40;99.90;;;;;;4972004;28;20039;-62
2022/10/19 02:42:40;;;;;;;10.98;2.10;;;13.20;99.90;;;;;;4971550;28;20035;-62
2022/10/19 02:45:28;;;;;;;7.50;1.63;;;13.40;99.90;;;;;;4971926;28;20114;-62
2022/10/19 02:48:01;;;;;;;7.60;1.80;;;13.40;99.90;;;;;;4970810;28;20454;-62
2022/10/19 02:50:27;;;;;;;5.18;1.30;;;13.50;99.90;;;;;;4971297;28;20035;-62
2022/10/19 02:52:52;;;;;;;9.68;1.92;;;13.10;99.90;;;;;;4968788;28;20396;-62
2022/10/19 02:55:18;;;;;;;9.93;1.60;;;13.40;99.90;;;;;;4956703;28;20053;-62
2022/10/19 02:57:44;;;;;;;13.95;2.35;;;13.20;99.90;;;;;;4973001;28;20046;-62
2022/10/19 03:00:10;;;;;;;9.18;1.90;;;13.20;99.90;;;;;;4974716;28;20070;-62
2022/10/19 03:02:36;;;;;;;11.80;1.80;;;13.20;99.90;;;;;;4974421;28;20408;-62
2022/10/19 03:05:03;;;;;;;8.73;1.73;;;13.20;99.90;;;;;;4974908;28;20045;-62
2022/10/19 03:07:28;;;;;;;10.55;1.85;;;13.30;99.90;;;;;;4973902;28;20034;-62
2022/10/19 03:09:54;;;;;;;11.50;1.95;;;13.20;99.90;;;;;;4941575;28;20039;-62
2022/10/19 03:12:20;;;;;;;11.40;2.60;;;13.20;99.90;;;;;;4971070;28;20444;-62
2022/10/19 03:14:45;;;;;;;8.20;1.98;;;13.10;99.90;;;;;;4975008;28;20042;-62
2022/10/19 03:17:11;;;;;;;16.95;2.20;;;13.20;99.90;;;;;;4954004;29;20470;-62
2022/10/19 03:19:37;;;;;;;16.02;2.88;;;13.20;99.90;;;;;;4970786;28;20069;-62
2022/10/19 03:22:03;;;;;;;13.18;2.08;;;13.20;99.90;;;;;;4972812;28;20074;-62
2022/10/19 03:24:29;;;;;;;17.23;2.65;;;13.30;99.90;;;;;;4974987;28;20050;-62
2022/10/19 03:26:55;;;;;;;11.25;1.90;;;13.20;99.90;;;;;;4974252;28;20408;-62
2022/10/19 03:29:20;;;;;;;18.25;2.53;;;13.40;99.90;;;;;;4973862;28;20038;-62
2022/10/19 03:31:46;;;;;;;10.68;2.10;;;13.40;99.90;;;;;;4974054;28;20491;-62
2022/10/19 03:34:11;;;;;;;9.60;2.47;;;13.40;99.90;;;;;;4974268;28;20061;-62
2022/10/19 03:36:38;;;;;;;11.38;2.88;;;13.40;99.90;;;;;;4975073;28;20042;-62
2022/10/19 03:39:07;;;;;;;11.25;2.40;;;13.20;99.90;;;;;;4957245;28;20055;-62
2022/10/19 03:41:35;;;;;;;13.68;2.30;;;13.40;99.90;;;;;;4973512;28;20094;-62
2022/10/19 03:44:01;;;;;;;16.50;2.67;;;13.30;99.90;;;;;;4974880;28;20039;-62
2022/10/19 03:46:26;;;;;;;13.23;1.98;;;13.10;99.90;;;;;;4973219;28;20042;-62
2022/10/19 03:48:53;;;;;;;11.00;2.20;;;13.20;99.90;;;;;;4974039;28;20081;-62
2022/10/19 03:51:21;;;;;;;16.75;2.28;;;13.10;99.90;;;;;;4974064;28;20034;-62
2022/10/19 03:53:51;;;;;;;12.85;2.50;;;13.00;99.90;;;;;;4973219;28;20117;-62
2022/10/19 03:56:19;;;;;;;15.30;2.10;;;13.00;99.90;;;;;;4972863;28;20046;-62
2022/10/19 03:58:45;;;;;;;8.93;1.77;;;13.10;99.90;;;;;;4970831;28;20492;-62
2022/10/19 04:01:15;;;;;;;13.23;1.70;;;13.00;99.90;;;;;;4966609;28;20043;-62
2022/10/19 04:03:41;;;;;;;15.15;2.40;;;13.20;99.90;;;;;;4973932;28;20055;-62
2022/10/19 04:06:11;;;;;;;15.85;2.30;;;13.10;99.90;;;;;;4974303;28;20043;-62
2022/10/19 04:08:36;;;;;;;12.15;2.30;;;13.00;99.90;;;;;;4972856;28;20042;-63
2022/10/19 04:11:09;;;;;;;11.75;2.33;;;13.10;99.90;;;;;;4956861;28;20041;-62
2022/10/19 04:13:35;;;;;;;9.85;2.35;;;13.00;99.90;;;;;;4974012;28;20492;-62
2022/10/19 04:16:01;;;;;;;11.48;2.05;;;13.10;99.90;;;;;;4956370;28;20125;-62
2022/10/19 04:18:27;;;;;;;14.70;2.67;;;13.00;99.90;;;;;;4974185;28;20062;-62
2022/10/19 04:21:01;;;;;;;15.25;2.42;;;12.90;99.90;;;;;;4971650;28;20035;-62
2022/10/19 04:23:29;;;;;;;15.18;2.78;;;12.60;99.90;;;;;;4970398;28;20042;-62
2022/10/19 04:26:01;;;;;;;9.55;1.85;;;12.80;99.90;;;;;;4955815;28;20038;-62
2022/10/19 04:28:28;;;;;;;17.95;2.05;;;12.70;99.90;;;;;;4972723;28;20122;-62
2022/10/19 04:30:53;;;;;;;7.68;2.08;;;12.50;99.90;;;;;;4973257;28;20030;-62
2022/10/19 04:33:19;;;;;;;13.10;2.05;;;12.50;99.90;;;;;;4972718;28;20512;-62
2022/10/19 04:35:44;;;;;;;13.57;2.05;;;12.50;99.90;;;;;;4973220;28;20496;-62
2022/10/19 04:38:10;;;;;;;9.77;1.85;;;12.60;99.90;;;;;;4972281;28;20042;-62
2022/10/19 04:40:36;;;;;;;11.07;1.92;;;12.40;99.90;;;;;;4973951;28;20050;-62
2022/10/19 04:43:03;;;;;;;7.18;2.28;;;12.60;99.90;;;;;;4955434;28;20043;-62
2022/10/19 04:45:28;;;;;;;19.55;2.22;;;12.60;99.90;;;;;;4972707;28;20093;-62
2022/10/19 04:47:57;;;;;;;9.68;1.67;;;12.50;99.90;;;;;;4972807;28;20074;-62
2022/10/19 04:50:23;;;;;;;12.98;2.38;;;12.60;99.90;;;;;;4973596;28;20089;-62
2022/10/19 04:52:49;;;;;;;15.48;2.25;;;12.40;99.90;;;;;;4955478;28;20043;-62
2022/10/19 04:55:15;;;;;;;12.02;1.85;;;12.40;99.90;;;;;;4972646;28;20097;-62
2022/10/19 04:57:40;;;;;;;11.80;2.00;;;12.40;99.90;;;;;;4971769;28;20452;-62
2022/10/19 05:00:07;;;;;;;7.88;2.40;;;12.50;99.90;;;;;;4973123;28;20503;-62
2022/10/19 05:02:32;;;;;;;15.73;2.10;;;12.60;99.90;;;;;;4971158;28;20042;-62
2022/10/19 05:04:58;;;;;;;18.98;2.38;;;12.70;99.90;;;;;;4972747;28;20056;-62
2022/10/19 05:07:23;;;;;;;14.00;2.17;;;12.80;99.90;;;;;;4961729;28;20053;-62
2022/10/19 05:09:49;;;;;;;13.52;2.40;;;12.80;99.90;;;;;;4973703;28;20038;-62
2022/10/19 05:12:14;;;;;;;7.75;1.80;;;12.70;99.90;;;;;;4971899;28;20050;-62
2022/10/19 05:14:40;;;;;;;23.00;2.25;;;12.60;99.90;;;;;;4971775;28;20045;-62
2022/10/19 05:17:05;;;;;;;9.35;2.20;;;12.70;99.90;;;;;;4971588;28;20051;-62
2022/10/19 05:19:31;;;;;;;17.50;2.35;;;12.80;99.90;;;;;;4954508;28;20051;-62
2022/10/19 05:21:56;;;;;;;12.70;2.67;;;12.60;99.90;;;;;;4969019;28;20035;-62
2022/10/19 05:24:22;;;;;;;10.30;2.67;;;13.20;99.90;;;;;;4972476;28;20082;-62
2022/10/19 05:26:47;;;;;;;10.95;1.92;;;12.80;99.90;;;;;;4954341;28;20039;-62
2022/10/19 05:29:13;;;;;;;13.23;2.15;;;12.70;99.90;;;;;;4971989;28;20523;-62
2022/10/19 05:31:39;;;;;;;9.40;1.85;;;12.70;99.90;;;;;;4968806;28;20394;-62
2022/10/19 05:34:05;;;;;;;12.50;2.00;;;12.80;99.90;;;;;;4951084;29;20039;-62
2022/10/19 05:36:36;;;;;;;12.40;2.13;;;12.70;99.90;;;;;;4967508;28;20048;-62
2022/10/19 05:39:05;;;;;;;10.88;2.40;;;12.80;99.90;;;;;;4972710;28;20050;-62
2022/10/19 05:41:31;;;;;;;11.77;2.20;;;12.70;99.90;;;;;;4971704;28;20778;-62
2022/10/19 05:43:59;;;;;;;13.75;2.60;;;12.60;99.90;;;;;;4971396;28;20559;-62
2022/10/19 05:46:27;;;;;;;14.75;2.10;;;12.60;99.90;;;;;;4967269;28;20540;-62
2022/10/19 05:48:54;;;;;;;14.20;2.33;;;12.70;99.90;;;;;;4970104;28;20031;-62
2022/10/19 05:51:21;;;;;;;10.45;2.03;;;12.60;99.90;;;;;;4971368;28;20507;-62
2022/10/19 05:53:47;;;;;;;10.85;1.80;;;12.60;99.90;;;;;;4964659;28;20039;-62
2022/10/19 05:56:18;;;;;;;15.38;2.50;;;12.70;99.90;;;;;;4972103;28;20039;-62
2022/10/19 05:58:44;;;;;;;15.02;2.70;;;12.70;99.90;;;;;;4954312;28;20129;-62
2022/10/19 06:01:10;;;;;;;10.35;1.95;;;12.60;99.90;;;;;;4968561;28;20114;-62
2022/10/19 06:03:36;;;;;;;10.40;2.30;;;12.60;99.90;;;;;;4962148;28;20042;-62
2022/10/19 06:06:06;;;;;;;11.00;2.75;;;12.50;99.90;;;;;;4962026;28;20041;-62
2022/10/19 06:08:32;;;;;;;14.52;2.10;;;12.50;99.90;;;;;;4971902;28;20408;-62
2022/10/19 06:11:12;;;;;;;13.40;2.97;;;12.60;99.90;;;;;;4934220;28;20035;-62
2022/10/19 06:13:39;;;;;;;11.27;3.10;;;12.70;99.90;;;;;;4972290;28;20045;-61
2022/10/19 06:16:05;;;;;;;16.60;2.15;;;12.50;99.90;;;;;;4967995;28;20042;-62
2022/10/19 06:18:32;;;;;;;13.18;2.40;;;12.60;99.90;;;;;;4968826;28;20085;-62
2022/10/19 06:21:02;;;;;;;12.13;2.20;;;12.70;99.90;;;;;;4953512;28;20089;-62
2022/10/19 06:23:28;;;;;;;15.77;2.47;;;12.60;99.90;;;;;;4970160;28;20043;-62
2022/10/19 06:25:53;;;;;;;15.20;3.03;;;12.70;99.90;;;;;;4956742;28;20098;-62
2022/10/19 06:28:19;;;;;;;17.55;2.95;;;12.60;99.90;;;;;;4964933;28;20043;-62
2022/10/19 06:30:44;;;;;;;15.57;2.42;;;12.70;99.90;;;;;;4971409;28;20043;-62
2022/10/19 06:33:10;;;;;;;14.85;2.40;;;12.70;99.90;;;;;;4975818;28;20034;-62
2022/10/19 06:35:37;;;;;;;12.73;2.05;;;12.70;99.90;;;;;;4952683;28;20054;-62
2022/10/19 06:38:03;;;;;;;12.27;2.08;;;12.70;99.90;;;;;;4970780;28;20051;-62
2022/10/19 06:40:28;;;;;;;14.13;2.70;;;12.60;99.90;;;;;;4972039;28;20139;-62
2022/10/19 06:42:55;;;;;;;16.63;3.05;;;12.80;99.90;;;;;;4975736;28;20053;-63
2022/10/19 06:45:20;;;;;;;19.52;3.03;;;12.60;99.90;;;;;;4956129;28;20058;-62
2022/10/19 06:47:46;;;;;;;16.05;2.60;;;12.70;99.90;;;;;;4972268;28;20436;-62
2022/10/19 06:50:12;;;;;;;16.73;2.35;;;12.80;99.90;;;;;;4970492;28;20373;-62
2022/10/19 06:52:39;;;;;;;12.93;2.15;;;12.80;99.90;;;;;;4974297;28;20690;-62
2022/10/19 06:55:05;;;;;;;17.63;2.30;;;12.90;99.90;;;;;;4952580;28;20050;-62
2022/10/19 06:57:31;;;;;;;14.73;2.58;;;12.80;99.90;;;;;;4971870;28;20034;-62
2022/10/19 06:59:56;;;;;;;16.67;2.50;;;12.90;99.90;;;;;;4972201;28;20038;-62
2022/10/19 07:02:23;;;;;;;10.70;2.30;;;12.90;99.90;;;;;;4974845;28;20138;-62
2022/10/19 07:04:48;;;;;;;16.65;2.65;;;12.90;99.90;;;;;;4974113;28;20042;-62
2022/10/19 07:07:14;;;;;;;15.52;2.45;;;13.00;99.90;;;;;;4972090;28;20459;-62
2022/10/19 07:09:40;;;;;;;13.65;2.55;;;12.90;99.90;;;;;;4973151;28;20094;-62
2022/10/19 07:12:05;;;;;;;15.63;2.70;;;12.90;99.90;;;;;;4974042;28;20129;-63
2022/10/19 07:14:37;;;;;;;15.20;3.00;;;13.00;99.90;;;;;;4966352;28;20046;-62
2022/10/19 07:17:03;;;;;;;13.00;2.47;;;12.90;99.90;;;;;;4968411;28;20554;-62
2022/10/19 07:19:29;;;;;;;16.55;2.38;;;13.10;99.90;;;;;;4971584;28;20039;-62
2022/10/19 07:21:54;;;;;;;14.07;2.05;;;13.40;99.90;;;;;;4970729;28;20105;-62
2022/10/19 07:24:20;;;;;;;18.17;2.75;;;13.10;99.90;;;;;;4974345;28;20042;-63
2022/10/19 07:26:46;;;;;;;17.50;2.88;;;13.20;99.90;;;;;;4972414;28;20050;-63
2022/10/19 07:29:11;;;;;;;14.93;2.17;;;13.20;99.90;;;;;;4966648;28;20045;-62
2022/10/19 07:31:37;;;;;;;9.30;2.17;;;13.20;99.90;;;;;;4970964;28;20035;-63
2022/10/19 07:34:04;;;;;;;22.02;2.83;;;13.30;99.90;;;;;;4972164;28;20519;-63
2022/10/19 07:36:32;;;;;;;17.48;2.30;;;13.30;99.90;;;;;;4968329;28;20042;-63
2022/10/19 07:39:00;;;;;;;15.80;2.60;;;13.30;99.90;;;;;;4967068;28;20532;-63
2022/10/19 07:41:26;;;;;;;11.57;2.25;;;13.40;99.90;;;;;;4972354;28;20465;-63
2022/10/19 07:43:52;;;;;;;18.58;2.75;;;13.50;99.90;;;;;;4970343;28;20133;-63
2022/10/19 07:46:27;;;;;;;18.90;2.67;;;13.60;99.90;;;;;;4967657;28;20043;-63
2022/10/19 07:48:53;;;;;;;11.55;2.70;;;13.60;99.90;;;;;;4956951;28;20034;-63
2022/10/19 07:51:20;;;;;;;20.20;3.50;;;14.00;99.90;;;;;;4967132;28;20049;-63
2022/10/19 07:53:46;;;;;;;13.73;2.65;;;13.70;99.90;;;;;;4964769;28;20540;-63
2022/10/19 07:56:17;;;;;;;16.17;2.53;;;13.80;99.90;;;;;;4966195;28;20123;-63
2022/10/19 07:58:43;;;;;;;28.83;2.60;;;13.80;99.90;;;;;;4966086;28;20123;-63
2022/10/19 08:01:11;;;;;;;9.40;1.95;;;13.80;99.90;;;;;;4950989;28;20117;-63
2022/10/19 08:03:37;;;;;;;12.57;2.30;;;13.80;99.90;;;;;;4970912;28;20038;-63
2022/10/19 08:06:06;;;;;;;13.40;2.50;;;13.90;99.90;;;;;;4963565;28;20097;-63
2022/10/19 08:08:32;;;;;;;12.52;2.30;;;13.80;99.90;;;;;;4965363;28;20070;-64
2022/10/19 08:11:13;;;;;;;11.45;3.00;;;13.90;99.90;;;;;;4966199;28;20066;-63
2022/10/19 08:13:39;;;;;;;13.77;2.38;;;13.80;99.90;;;;;;4965811;28;20043;-62
2022/10/19 08:16:05;;;;;;;7.65;1.67;;;13.90;99.90;;;;;;4966429;28;20408;-62
2022/10/19 08:18:31;;;;;;;19.58;2.70;;;13.90;99.90;;;;;;4947997;28;20055;-63
2022/10/19 08:20:57;;;;;;;14.65;2.85;;;14.00;99.90;;;;;;4964199;28;20443;-63
2022/10/19 08:23:23;;;;;;;12.02;2.53;;;14.00;99.90;;;;;;4967451;28;20047;-63
2022/10/19 08:25:49;;;;;;;9.90;1.90;;;14.00;99.90;;;;;;4962961;28;20134;-62
2022/10/19 08:28:15;;;;;;;13.32;2.33;;;13.90;99.90;;;;;;4966030;28;20082;-62
2022/10/19 08:30:40;;;;;;;10.25;2.38;;;14.00;99.90;;;;;;4969240;28;20073;-62
2022/10/19 08:33:07;;;;;;;8.80;1.75;;;14.00;99.90;;;;;;4964380;28;20043;-62
2022/10/19 08:35:33;;;;;;;12.57;2.15;;;14.00;99.90;;;;;;4963938;28;20059;-63
2022/10/19 08:37:59;;;;;;;15.60;3.20;;;14.10;99.90;;;;;;4963903;28;20043;-62
2022/10/19 08:40:29;;;;;;;12.13;2.13;;;14.10;99.90;;;;;;4963991;28;20094;-62
2022/10/19 08:43:19;;;;;;;12.35;3.22;;;14.10;99.90;;;;;;4963789;28;20053;-63
2022/10/19 08:46:08;;;;;;;18.02;2.33;;;14.10;99.90;;;;;;4962269;28;20039;-63
2022/10/19 08:48:38;;;;;;;15.98;2.05;;;14.20;99.90;;;;;;4968165;28;20085;-62
2022/10/19 08:51:04;;;;;;;10.52;2.42;;;14.10;99.90;;;;;;4965792;28;20047;-62
2022/10/19 08:53:36;;;;;;;9.60;1.88;;;14.10;99.90;;;;;;4969578;28;20071;-62
2022/10/19 08:56:13;;;;;;;9.20;2.58;;;14.20;99.90;;;;;;4971524;28;20428;-62
2022/10/19 08:59:10;;;;;;;12.85;2.08;;;14.20;99.90;;;;;;4970135;28;20046;-63
2022/10/19 09:01:42;;;;;;;;;;;14.10;99.90;;;;;;4967744;28;20046;-63
2022/10/19 09:04:25;;;;;;;18.85;2.35;;;14.10;99.90;;;;;;4970420;28;19941;-62
2022/10/19 09:07:15;;;;;;;13.82;2.30;;;14.10;99.90;;;;;;4968724;28;20428;-63
2022/10/19 09:09:51;;;;;;;15.25;2.30;;;14.10;99.90;;;;;;4968506;28;20043;-63
2022/10/19 09:12:26;;;;;;;11.95;2.08;;;14.10;99.90;;;;;;4969156;28;20057;-62
2022/10/19 09:15:02;;;;;;;8.38;1.80;;;14.20;99.90;;;;;;4963027;28;20038;-61
2022/10/19 09:17:29;;;;;;;6.63;1.33;;;14.10;99.90;;;;;;4946746;28;20405;-63
2022/10/19 09:19:57;;;;;;;8.15;1.73;;;14.10;99.90;;;;;;4968304;28;20089;-62
2022/10/19 09:22:29;;;;;;;5.05;1.67;;;14.40;99.90;;;;;;4969740;28;20347;-62
2022/10/19 09:25:02;;;;;;;13.65;2.67;;;14.00;99.90;;;;;;4971546;28;20043;-62
2022/10/19 09:27:35;;;;;;;6.45;1.48;;;14.10;99.90;;;;;;4972281;28;20086;-62
2022/10/19 09:30:09;;;;;;;8.05;1.67;;;14.00;99.90;;;;;;4960836;28;20090;-62
2022/10/19 09:32:37;;;;;;;5.45;1.35;;;14.00;99.90;;;;;;4954635;28;20045;-62
2022/10/19 09:35:16;;;;;;;15.65;2.60;;;14.00;99.90;;;;;;4972669;28;20411;-62
2022/10/19 09:37:47;;;;;;;11.60;1.90;;;14.00;99.90;;;;;;4973233;28;20536;-62
2022/10/19 09:40:22;;;;;;;15.15;2.15;;;14.00;99.90;;;;;;4969843;28;20130;-62
2022/10/19 09:42:56;;;;;;;7.85;1.90;;;14.10;99.90;;;;;;4971867;28;20070;-62
2022/10/19 09:45:42;;;;;;;7.32;1.40;;;14.20;99.90;;;;;;4950903;28;20047;-62
2022/10/19 09:48:32;;;;;;;7.82;1.73;;;14.60;99.90;;;;;;4970214;28;20045;-62
2022/10/19 09:51:09;;;;;;;15.30;2.10;;;14.40;99.90;;;;;;4933954;28;20050;-61
2022/10/19 09:53:35;;;;;;;5.43;1.65;;;14.40;99.90;;;;;;4924905;28;20448;-61
2022/10/19 09:56:07;;;;;;;6.57;1.65;;;14.20;99.90;;;;;;4969543;28;20051;-62
2022/10/19 09:58:34;;;;;;;5.78;1.38;;;14.10;99.90;;;;;;4971458;28;20053;-61
2022/10/19 10:01:01;;;;;;;12.93;1.85;;;14.00;99.90;;;;;;4971507;28;20041;-61
2022/10/19 10:03:28;;;;;;;9.77;1.90;;;13.90;99.90;;;;;;4970631;28;20563;-61
2022/10/19 10:06:19;;;;;;;16.92;2.08;;;13.90;99.90;;;;;;4971946;28;20042;-61
2022/10/19 10:08:56;;;;;;;6.20;1.30;;;14.00;99.90;;;;;;4963460;28;20047;-62
2022/10/19 10:11:37;;;;;;;8.93;2.50;;;14.70;99.90;;;;;;4971944;28;20579;-61
2022/10/19 10:14:18;;;;;;;13.00;2.00;;;14.30;99.90;;;;;;4972243;28;20050;-61
2022/10/19 10:16:45;;;;;;;5.57;1.55;;;14.50;99.90;;;;;;4972012;28;20449;-62
2022/10/19 10:19:14;;;;;;;5.88;1.70;;;14.40;99.90;;;;;;4955084;28;20059;-62
2022/10/19 10:21:48;;;;;;;6.78;1.42;;;14.50;99.90;;;;;;4972034;28;20105;-62
2022/10/19 10:24:15;;;;;;;7.65;1.30;;;14.40;99.90;;;;;;4972524;28;20459;-62
2022/10/19 10:26:46;;;;;;;5.85;1.67;;;14.40;99.90;;;;;;4971178;28;20054;-61
2022/10/19 10:29:25;;;;;;;6.18;1.77;;;14.50;99.90;;;;;;4971996;28;20127;-62
2022/10/19 10:32:04;;;;;;;9.02;1.77;;;14.40;99.90;;;;;;4970193;28;20492;-62
2022/10/19 10:34:43;;;;;;;8.63;2.03;;;14.50;90.30;;;;;;4950061;29;20035;-62
2022/10/19 10:37:20;;;;;;;6.60;1.70;;;14.80;90.00;;;;;;4966809;28;20568;-62
2022/10/19 10:39:51;;;;;;;10.93;2.22;;;15.00;71.20;;;;;;4971634;28;20042;-62
2022/10/19 10:42:27;;;;;;;8.15;1.67;;;15.00;99.90;;;;;;4971887;28;20038;-62
2022/10/19 10:44:55;;;;;;;8.68;2.20;;;15.00;99.90;;;;;;4971958;28;20043;-62
2022/10/19 10:47:21;;;;;;;7.18;1.63;;;15.10;99.90;;;;;;4954454;28;20047;-62
2022/10/19 10:50:02;;;;;;;13.40;1.80;;;15.00;99.90;;;;;;4972283;28;20047;-62
2022/10/19 10:52:32;;;;;;;11.80;2.22;;;14.90;68.70;;;;;;4969943;28;20046;-62
2022/10/19 10:55:15;;;;;;;13.23;2.17;;;14.80;99.00;;;;;;4955049;28;20082;-62
2022/10/19 10:57:46;;;;;;;10.32;1.55;;;14.90;99.60;;;;;;4971975;28;20138;-62
2022/10/19 11:00:18;;;;;;;4.97;1.45;;;14.90;83.30;;;;;;4970717;28;20043;-61
2022/10/19 11:03:10;;;;;;;13.73;2.45;;;15.10;53.40;;;;;;4970501;28;20038;-62
2022/10/19 11:05:43;;;;;;;8.77;1.95;;;14.70;61.10;;;;;;4971412;28;20058;-61
2022/10/19 11:08:33;;;;;;;5.93;2.08;;;14.60;91.60;;;;;;4935860;29;20042;-62
2022/10/19 11:11:24;;;;;;;18.42;2.10;;;14.60;78.90;;;;;;4958225;28;20097;-61
2022/10/19 11:14:03;;;;;;;7.97;2.03;;;14.60;99.90;;;;;;4975646;28;20206;-62
2022/10/19 11:16:41;;;;;;;11.20;2.00;;;14.70;82.50;;;;;;4975403;28;20048;-62
2022/10/19 11:19:13;;;;;;;6.25;1.50;;;14.70;91.20;;;;;;4964180;28;20074;-62
2022/10/19 11:21:58;;;;;;;10.32;1.88;;;14.60;95.70;;;;;;4969312;28;20046;-62
2022/10/19 11:24:26;;;;;;;7.43;2.00;;;14.50;29.20;;;;;;4941959;28;20074;-62
2022/10/19 11:26:58;;;;;;;10.13;1.85;;;14.40;14.50;;;;;;4975081;28;20038;-62
2022/10/19 11:29:47;;;;;;;10.05;2.15;;;14.40;11.90;;;;;;4951865;28;20491;-61
2022/10/19 11:32:26;;;;;;;12.60;2.33;;;14.40;1.00;;;;;;4974261;28;20089;-61
2022/10/19 11:35:10;;;;;;;13.90;2.25;;;14.50;1.00;;;;;;4957170;28;20039;-62
2022/10/19 11:38:01;;;;;;;11.13;2.85;;;14.60;1.00;;;;;;4974467;28;20378;-62
2022/10/19 11:41:03;;;;;;;10.80;2.08;;;14.60;1.00;;;;;;4956267;28;20039;-62
2022/10/19 11:43:56;;;;;;;6.25;1.85;;;14.50;1.00;;;;;;4947862;28;20121;-62
2022/10/19 11:46:50;;;;;;;6.30;1.73;;;14.50;4.60;;;;;;4962944;28;20081;-62
2022/10/19 11:50:00;;;;;;;14.45;2.42;;;14.40;10.60;;;;;;4953990;28;20046;-62
2022/10/19 11:52:50;;;;;;;6.20;1.67;;;14.20;1.00;;;;;;4974618;28;20094;-62
2022/10/19 11:55:35;;;;;;;9.15;2.03;;;14.20;38.30;;;;;;4974488;28;20110;-62
2022/10/19 11:58:28;;;;;;;18.60;2.53;;;14.20;31.60;;;;;;4974127;28;20118;-62
2022/10/19 12:01:21;;;;;;;11.95;2.25;;;14.10;10.10;;;;;;4974156;28;20883;-62
2022/10/19 12:04:02;;;;;;;10.57;2.20;;;14.20;12.90;;;;;;4974223;28;20039;-62
2022/10/19 12:06:39;;;;;;;12.45;2.10;;;14.30;54.10;;;;;;4974273;28;20076;-62
2022/10/19 12:09:31;;;;;;;12.32;1.77;;;14.40;69.60;;;;;;4974464;28;20043;-62
2022/10/19 12:12:14;;;;;;;9.85;1.98;;;14.60;99.90;;;;;;4974298;28;20177;-63
2022/10/19 12:14:42;;;;;;;6.88;1.50;;;14.50;82.60;;;;;;4973884;28;20094;-62
2022/10/19 12:17:14;;;;;;;2.88;1.20;;;14.60;99.90;;;;;;4972581;28;20034;-62
2022/10/19 12:19:45;;;;;;;7.93;1.67;;;14.60;99.90;;;;;;4970492;28;20118;-63
2022/10/19 12:22:17;;;;;;;7.70;1.70;;;14.70;99.90;;;;;;4961011;28;20416;-62
2022/10/19 12:24:42;;;;;;;7.63;2.25;;;14.60;98.70;;;;;;4971140;28;20378;-62
2022/10/19 12:27:17;;;;;;;8.27;1.35;;;14.50;99.90;;;;;;4973555;28;20054;-64
2022/10/19 12:29:46;;;;;;;5.25;1.73;;;14.60;99.90;;;;;;4955146;29;20114;-63
2022/10/19 12:32:15;;;;;;;11.95;2.05;;;14.50;92.50;;;;;;4967689;28;20511;-63
2022/10/19 12:34:45;;;;;;;7.80;1.80;;;14.50;99.90;;;;;;4973287;28;20505;-62
2022/10/19 12:37:33;;;;;;;8.60;2.10;;;14.60;76.60;;;;;;4964042;28;20078;-63
2022/10/19 12:40:15;;;;;;;5.82;1.23;;;14.60;94.00;;;;;;4972463;28;20520;-62
2022/10/19 12:43:16;;;;;;;8.43;1.70;;;14.70;85.90;;;;;;4972939;28;20039;-62
2022/10/19 12:45:53;;;;;;;8.98;1.92;;;14.80;77.50;;;;;;4970326;28;20043;-63
2022/10/19 12:48:21;;;;;;;17.92;3.13;;;14.80;90.10;;;;;;4958880;28;20377;-62
2022/10/19 12:50:52;;;;;;;11.60;2.35;;;14.90;99.90;;;;;;4973552;28;20705;-63
2022/10/19 12:53:37;;;;;;;9.82;1.90;;;15.00;50.80;;;;;;4964083;28;20034;-63
2022/10/19 12:56:08;;;;;;;9.68;2.20;;;15.00;9.40;;;;;;4965448;28;20050;-63
2022/10/19 12:58:43;;;;;;;5.68;1.60;;;15.00;22.60;;;;;;4970976;28;20057;-62
2022/10/19 13:01:39;;;;;;;7.43;1.50;;;14.90;23.70;;;;;;4973201;28;20051;-62